Time;durP1;ratioP1;P1;durP2;ratioP2;P2;SDS_P1;SDS_P2;PMS_P1;PMS_P2;Temp;Humidity;BMP_temperature;BMP_pressure;BME280_temperature;BME280_humidity;BME280_pressure;Samples;Min_cycle;Max_cycle;Signal;HPM_P1;HPM_P2
2021/06/12 00:00:30;;;;;;;11.70;9.73;;;409.90;2355.20;;;;;;5055269;28;20377;-74
2021/06/12 00:02:57;;;;;;;15.55;9.85;;;409.80;2355.20;;;;;;5055502;28;20393;-74
2021/06/12 00:05:25;;;;;;;14.05;10.43;;;409.90;2355.20;;;;;;5054735;28;20028;-74
2021/06/12 00:07:51;;;;;;;11.45;9.70;;;409.80;2355.20;;;;;;5055264;28;20029;-75
2021/06/12 00:10:28;;;;;;;14.50;10.05;;;409.80;2355.20;;;;;;5055366;28;20029;-76
2021/06/12 00:12:54;;;;;;;11.35;10.00;;;409.80;2355.20;;;;;;5055242;28;20112;-73
2021/06/12 00:15:22;;;;;;;14.25;10.68;;;409.90;2355.20;;;;;;5055224;28;20473;-74
2021/06/12 00:17:48;;;;;;;17.05;10.48;;;409.90;2355.20;;;;;;5054882;28;20029;-73
2021/06/12 00:20:17;;;;;;;13.85;9.15;;;409.90;2355.20;;;;;;5055145;28;20182;-75
2021/06/12 00:22:43;;;;;;;13.18;9.73;;;409.90;2355.20;;;;;;5054956;28;20494;-73
2021/06/12 00:25:11;;;;;;;13.00;9.70;;;409.90;2355.20;;;;;;5055085;28;20052;-74
2021/06/12 00:27:39;;;;;;;14.00;9.98;;;410.00;2355.20;;;;;;5055055;28;20025;-74
2021/06/12 00:30:10;;;;;;;16.05;9.35;;;410.00;2355.20;;;;;;5054837;28;20445;-75
2021/06/12 00:32:36;;;;;;;16.23;9.25;;;410.00;2355.20;;;;;;5054878;28;20113;-74
2021/06/12 00:35:02;;;;;;;17.55;10.77;;;410.00;2355.20;;;;;;5054810;28;20112;-73
2021/06/12 00:37:28;;;;;;;11.52;8.82;;;410.00;2355.20;;;;;;5055065;28;20045;-74
2021/06/12 00:39:53;;;;;;;13.10;10.10;;;410.10;2355.20;;;;;;5054876;28;20024;-73
2021/06/12 00:42:19;;;;;;;11.52;9.80;;;410.10;2355.20;;;;;;5054493;28;20462;-74
2021/06/12 00:44:45;;;;;;;13.80;9.93;;;410.10;2355.20;;;;;;5057678;28;20021;-73
2021/06/12 00:47:11;;;;;;;10.48;9.38;;;410.00;2355.20;;;;;;5074400;28;20376;-74
2021/06/12 00:49:36;;;;;;;13.27;10.00;;;410.00;2355.20;;;;;;5074418;28;20033;-76
2021/06/12 00:52:03;;;;;;;13.15;10.25;;;409.90;2355.20;;;;;;5074745;28;20511;-74
2021/06/12 00:54:28;;;;;;;10.40;9.30;;;409.90;2355.20;;;;;;5073980;28;20526;-75
2021/06/12 00:56:55;;;;;;;13.07;10.25;;;409.90;2355.20;;;;;;5074304;28;20028;-75
2021/06/12 00:59:21;;;;;;;15.20;11.13;;;410.00;2355.20;;;;;;5074159;28;20028;-73
2021/06/12 01:01:47;;;;;;;13.55;10.30;;;410.00;2355.20;;;;;;5074110;28;20100;-74
2021/06/12 01:04:13;;;;;;;10.90;9.18;;;410.00;2355.20;;;;;;5074488;28;20070;-74
2021/06/12 01:06:39;;;;;;;12.38;10.40;;;409.90;2355.20;;;;;;5074275;28;20055;-75
2021/06/12 01:09:05;;;;;;;12.15;10.32;;;409.80;2355.20;;;;;;5074043;28;20388;-75
2021/06/12 01:11:44;;;;;;;19.40;11.10;;;409.70;2355.20;;;;;;5073913;28;20499;-73
2021/06/12 01:14:22;;;;;;;13.65;10.30;;;409.70;2355.20;;;;;;5072637;28;20024;-74
2021/06/12 01:16:55;;;;;;;13.65;10.35;;;409.60;2355.20;;;;;;5073101;28;20031;-75
2021/06/12 01:19:43;;;;;;;12.05;10.43;;;384.90;2329.60;;;;;;5074082;28;20021;-73
2021/06/12 01:22:16;;;;;;;12.40;10.93;;;384.90;2329.60;;;;;;5073841;28;20420;-75
2021/06/12 01:25:07;;;;;;;12.30;10.10;;;384.80;2329.60;;;;;;5072464;28;20540;-73
2021/06/12 01:28:08;;;;;;;13.63;11.27;;;384.80;2329.60;;;;;;5072416;28;20029;-74
2021/06/12 01:30:35;;;;;;;14.55;11.35;;;384.80;2329.60;;;;;;5072367;28;20016;-73
2021/06/12 01:33:08;;;;;;;14.05;11.13;;;384.80;2329.60;;;;;;5073721;28;20020;-73
2021/06/12 01:35:43;;;;;;;11.85;10.65;;;384.80;2329.60;;;;;;5073736;28;20502;-74
2021/06/12 01:38:20;;;;;;;17.40;12.52;;;384.80;2329.60;;;;;;5073712;28;20136;-75
2021/06/12 01:40:48;;;;;;;15.80;11.63;;;384.80;2329.60;;;;;;5073500;28;20031;-74
2021/06/12 01:43:15;;;;;;;15.73;12.52;;;384.80;2329.60;;;;;;5073846;28;20066;-73
2021/06/12 01:45:43;;;;;;;14.40;11.38;;;384.80;2329.60;;;;;;5072094;28;20024;-73
2021/06/12 01:48:11;;;;;;;16.77;12.02;;;384.80;2329.60;;;;;;5073657;28;20477;-73
2021/06/12 01:50:37;;;;;;;15.40;12.15;;;384.90;2329.60;;;;;;5073453;28;20030;-73
2021/06/12 01:53:05;;;;;;;12.52;10.25;;;409.60;2355.20;;;;;;5073300;28;20085;-74
2021/06/12 01:55:33;;;;;;;13.27;11.52;;;409.60;2355.20;;;;;;5073233;28;20116;-74
2021/06/12 01:58:01;;;;;;;15.02;11.32;;;409.60;2355.20;;;;;;5073525;28;20020;-73
2021/06/12 02:00:27;;;;;;;15.52;13.82;;;409.70;2355.20;;;;;;5073376;28;20021;-74
2021/06/12 02:02:54;;;;;;;18.30;11.88;;;409.70;2355.20;;;;;;5073201;28;20025;-75
2021/06/12 02:05:22;;;;;;;14.10;11.40;;;409.90;2355.20;;;;;;5073510;28;20016;-73
2021/06/12 02:07:50;;;;;;;21.85;11.07;;;409.60;2355.20;;;;;;5073374;28;20027;-75
2021/06/12 02:10:34;;;;;;;13.35;10.70;;;409.60;2355.20;;;;;;5074610;28;20081;-74
2021/06/12 02:13:00;;;;;;;12.45;10.48;;;384.90;2329.60;;;;;;5079616;28;20532;-75
2021/06/12 02:15:30;;;;;;;12.75;10.35;;;384.90;2329.60;;;;;;5077626;28;20395;-74
2021/06/12 02:18:00;;;;;;;14.90;10.73;;;384.90;2329.60;;;;;;5073183;28;20024;-73
2021/06/12 02:20:26;;;;;;;14.38;11.38;;;409.60;2355.20;;;;;;5073240;28;20043;-74
2021/06/12 02:22:55;;;;;;;11.85;10.05;;;384.90;2329.60;;;;;;5073145;28;20036;-74
2021/06/12 02:25:20;;;;;;;13.23;10.65;;;384.90;2329.60;;;;;;5073452;28;20020;-73
2021/06/12 02:27:55;;;;;;;14.73;12.00;;;384.90;2329.60;;;;;;5075252;28;20020;-74
2021/06/12 02:30:24;;;;;;;11.23;9.90;;;409.60;2355.20;;;;;;5076908;28;20030;-74
2021/06/12 02:32:56;;;;;;;16.98;11.15;;;409.70;2355.20;;;;;;5077300;28;20491;-74
2021/06/12 02:35:22;;;;;;;13.63;11.68;;;409.60;2355.20;;;;;;5077143;28;20028;-75
2021/06/12 02:37:48;;;;;;;12.38;9.32;;;384.90;2329.60;;;;;;5077541;28;20025;-75
2021/06/12 02:40:14;;;;;;;16.73;11.20;;;384.90;2329.60;;;;;;5077123;28;20055;-75
2021/06/12 02:42:40;;;;;;;18.27;10.55;;;384.90;2329.60;;;;;;5077668;28;20021;-76
2021/06/12 02:45:09;;;;;;;11.23;9.30;;;384.90;2329.60;;;;;;5080262;28;20032;-75
2021/06/12 02:48:01;;;;;;;14.00;11.45;;;384.90;2329.60;;;;;;5096071;28;20025;-75
2021/06/12 02:50:33;;;;;;;13.27;10.40;;;409.60;2355.20;;;;;;5096042;28;20024;-75
2021/06/12 02:53:06;;;;;;;13.05;9.52;;;409.60;2355.20;;;;;;5079302;28;20025;-74
2021/06/12 02:55:38;;;;;;;13.30;10.98;;;409.70;2355.20;;;;;;5076629;28;20032;-77
2021/06/12 02:58:05;;;;;;;16.25;11.27;;;409.70;2355.20;;;;;;5077019;28;20487;-76
2021/06/12 03:00:34;;;;;;;12.60;10.32;;;409.70;2355.20;;;;;;5076636;28;20078;-73
2021/06/12 03:03:01;;;;;;;14.23;9.73;;;409.70;2355.20;;;;;;5076599;28;20021;-75
2021/06/12 03:05:29;;;;;;;12.75;10.07;;;409.70;2355.20;;;;;;5076748;28;20390;-74
2021/06/12 03:07:57;;;;;;;14.02;10.95;;;409.60;2355.20;;;;;;5076381;28;20021;-75
2021/06/12 03:10:26;;;;;;;13.32;10.32;;;409.70;2355.20;;;;;;5076485;28;20035;-73
2021/06/12 03:12:55;;;;;;;15.25;10.70;;;409.70;2355.20;;;;;;5076553;28;20021;-76
2021/06/12 03:15:21;;;;;;;16.80;12.13;;;409.70;2355.20;;;;;;5090766;28;20058;-77
2021/06/12 03:17:50;;;;;;;11.65;10.02;;;409.70;2355.20;;;;;;5097921;28;20021;-77
2021/06/12 03:20:18;;;;;;;12.85;10.25;;;409.70;2355.20;;;;;;5098850;28;20044;-75
2021/06/12 03:22:48;;;;;;;13.15;10.60;;;409.70;2355.20;;;;;;5098203;28;20021;-76
2021/06/12 03:25:15;;;;;;;14.30;10.20;;;409.70;2355.20;;;;;;5099115;28;20076;-75
2021/06/12 03:27:45;;;;;;;12.57;10.30;;;409.70;2355.20;;;;;;5088805;28;20020;-76
2021/06/12 03:30:12;;;;;;;12.27;10.65;;;384.90;2329.60;;;;;;5087988;28;20032;-75
2021/06/12 03:32:38;;;;;;;15.77;11.27;;;409.70;2355.20;;;;;;5092969;28;20036;-73
2021/06/12 03:35:05;;;;;;;15.15;12.40;;;409.80;2355.20;;;;;;5094680;28;20097;-76
2021/06/12 03:37:32;;;;;;;18.23;13.45;;;409.80;2355.20;;;;;;5095043;28;20074;-74
2021/06/12 03:39:58;;;;;;;21.10;14.88;;;409.80;2355.20;;;;;;5094200;28;20124;-74
2021/06/12 03:42:25;;;;;;;19.63;14.77;;;409.80;2355.20;;;;;;5095458;28;20049;-75
2021/06/12 03:44:51;;;;;;;17.27;13.95;;;409.90;2355.20;;;;;;5080763;28;20486;-75
2021/06/12 03:47:18;;;;;;;18.65;15.63;;;409.90;2355.20;;;;;;5093802;28;20021;-74
2021/06/12 03:49:45;;;;;;;28.70;12.75;;;409.80;2355.20;;;;;;5093902;28;20028;-76
2021/06/12 03:52:11;;;;;;;15.55;12.50;;;409.80;2355.20;;;;;;5094018;28;20064;-74
2021/06/12 03:54:37;;;;;;;13.93;10.50;;;409.90;2355.20;;;;;;5093954;28;20533;-73
2021/06/12 03:57:04;;;;;;;12.38;10.32;;;409.80;2355.20;;;;;;5093666;28;20024;-75
2021/06/12 03:59:30;;;;;;;12.90;9.55;;;409.80;2355.20;;;;;;5093932;28;20032;-76
2021/06/12 04:01:57;;;;;;;14.27;9.38;;;409.90;2355.20;;;;;;5092001;28;20032;-75
2021/06/12 04:04:24;;;;;;;11.10;9.43;;;409.80;2355.20;;;;;;5085476;28;20060;-76
2021/06/12 04:06:51;;;;;;;13.32;10.52;;;409.80;2355.20;;;;;;5086958;28;20016;-74
2021/06/12 04:09:17;;;;;;;12.15;9.40;;;409.80;2355.20;;;;;;5085255;28;20356;-75
2021/06/12 04:11:43;;;;;;;14.93;10.43;;;409.80;2355.20;;;;;;5080851;28;20024;-75
2021/06/12 04:14:08;;;;;;;14.63;10.10;;;409.80;2355.20;;;;;;5081766;28;20028;-74
2021/06/12 04:16:34;;;;;;;13.45;10.70;;;409.80;2355.20;;;;;;5081700;28;20067;-74
2021/06/12 04:19:03;;;;;;;19.65;11.02;;;409.90;2355.20;;;;;;5080995;28;20427;-74
2021/06/12 04:21:29;;;;;;;12.00;10.38;;;409.90;2355.20;;;;;;5079346;28;20111;-74
2021/06/12 04:23:55;;;;;;;11.48;10.18;;;410.00;2355.20;;;;;;5077728;28;20059;-73
2021/06/12 04:26:21;;;;;;;14.70;9.80;;;410.00;2355.20;;;;;;5075296;28;20037;-74
2021/06/12 04:28:46;;;;;;;11.25;9.07;;;410.00;2355.20;;;;;;5075474;28;20020;-72
2021/06/12 04:31:12;;;;;;;16.70;11.20;;;410.10;2355.20;;;;;;5075313;28;20028;-76
2021/06/12 04:33:38;;;;;;;11.18;9.45;;;410.00;2355.20;;;;;;5075155;28;20024;-74
2021/06/12 04:36:04;;;;;;;12.93;9.60;;;410.00;2355.20;;;;;;5075022;28;20503;-74
2021/06/12 04:38:30;;;;;;;11.73;9.15;;;410.00;2355.20;;;;;;5074946;28;20084;-75
2021/06/12 04:40:56;;;;;;;16.00;11.43;;;410.00;2355.20;;;;;;5074907;28;20060;-74
2021/06/12 04:43:22;;;;;;;18.80;13.52;;;409.90;2355.20;;;;;;5074850;28;20460;-76
2021/06/12 04:45:47;;;;;;;21.08;15.00;;;409.80;2355.20;;;;;;5074892;28;20025;-76
2021/06/12 04:48:13;;;;;;;27.85;13.63;;;409.70;2355.20;;;;;;5074665;28;20017;-73
2021/06/12 04:50:40;;;;;;;18.13;13.27;;;409.70;2355.20;;;;;;5074533;28;20107;-75
2021/06/12 04:53:07;;;;;;;16.55;12.60;;;409.60;2355.20;;;;;;5072864;28;20419;-74
2021/06/12 04:55:33;;;;;;;17.17;12.32;;;384.80;2329.60;;;;;;5074570;28;20047;-73
2021/06/12 04:57:59;;;;;;;20.50;13.90;;;384.60;2329.60;;;;;;5073428;28;20070;-76
2021/06/12 05:00:25;;;;;;;17.42;13.10;;;384.70;2329.60;;;;;;5074395;28;20025;-75
2021/06/12 05:02:51;;;;;;;17.65;11.88;;;384.80;2329.60;;;;;;5074248;28;20465;-75
2021/06/12 05:05:17;;;;;;;16.77;11.82;;;384.80;2329.60;;;;;;5071684;28;20546;-78
2021/06/12 05:07:43;;;;;;;16.83;12.95;;;384.80;2329.60;;;;;;5073909;28;20048;-74
2021/06/12 05:10:09;;;;;;;16.08;13.25;;;384.90;2329.60;;;;;;5074483;28;20443;-76
2021/06/12 05:12:37;;;;;;;14.25;11.95;;;409.60;2355.20;;;;;;5074381;28;20016;-75
2021/06/12 05:15:08;;;;;;;24.27;14.05;;;409.60;2355.20;;;;;;5074601;28;20028;-74
2021/06/12 05:17:34;;;;;;;19.33;13.07;;;409.70;2355.20;;;;;;5074652;28;20028;-77
2021/06/12 05:20:00;;;;;;;20.02;15.35;;;409.70;2355.20;;;;;;5060329;28;20025;-73
2021/06/12 05:22:27;;;;;;;16.85;13.35;;;409.80;2355.20;;;;;;5057099;28;20024;-75
2021/06/12 05:24:54;;;;;;;16.38;12.45;;;410.00;2355.20;;;;;;5053933;28;20020;-75
2021/06/12 05:27:20;;;;;;;16.08;13.52;;;410.10;2355.20;;;;;;5054149;28;20036;-76
2021/06/12 05:29:47;;;;;;;16.92;13.07;;;410.20;2355.20;;;;;;5062941;28;20021;-76
2021/06/12 05:32:14;;;;;;;15.75;13.43;;;410.30;2355.20;;;;;;5074048;28;20032;-73
2021/06/12 05:34:40;;;;;;;20.42;13.13;;;410.40;2355.20;;;;;;5074274;28;20033;-74
2021/06/12 05:37:07;;;;;;;16.48;13.30;;;410.50;2355.20;;;;;;5073786;28;20108;-74
2021/06/12 05:39:33;;;;;;;16.92;13.82;;;435.30;2355.20;;;;;;5073811;28;20028;-76
2021/06/12 05:41:59;;;;;;;16.88;13.50;;;435.40;2355.20;;;;;;5073841;28;20116;-73
2021/06/12 05:44:27;;;;;;;16.40;12.45;;;435.40;2355.20;;;;;;5070114;28;20020;-75
2021/06/12 05:46:53;;;;;;;15.95;12.98;;;435.60;2355.20;;;;;;5065095;28;20044;-74
2021/06/12 05:49:19;;;;;;;17.25;12.73;;;435.70;2355.20;;;;;;5075232;28;20012;-75
2021/06/12 05:51:46;;;;;;;18.95;13.48;;;435.90;2355.20;;;;;;5076997;28;20460;-74
2021/06/12 05:54:12;;;;;;;17.90;13.07;;;435.90;2355.20;;;;;;5074007;28;20593;-75
2021/06/12 05:56:37;;;;;;;16.90;12.55;;;436.00;2355.20;;;;;;5074978;28;20046;-76
2021/06/12 05:59:04;;;;;;;15.50;12.30;;;436.10;2355.20;;;;;;5075548;28;20092;-74
2021/06/12 06:01:30;;;;;;;16.75;12.82;;;436.10;2355.20;;;;;;5075944;28;20107;-73
2021/06/12 06:03:55;;;;;;;18.50;12.73;;;460.80;2380.80;;;;;;5076942;28;20029;-73
2021/06/12 06:06:21;;;;;;;13.77;12.20;;;461.00;2380.80;;;;;;5074288;28;20052;-73
2021/06/12 06:08:47;;;;;;;16.33;10.80;;;461.10;2380.80;;;;;;5073559;28;20099;-73
2021/06/12 06:11:13;;;;;;;16.50;13.18;;;461.10;2380.80;;;;;;5074090;28;20024;-75
2021/06/12 06:13:40;;;;;;;18.55;11.73;;;461.30;2380.80;;;;;;5073512;28;20473;-75
2021/06/12 06:16:06;;;;;;;15.82;12.18;;;461.30;2380.80;;;;;;5073208;28;20028;-75
2021/06/12 06:18:32;;;;;;;16.45;12.75;;;461.40;2380.80;;;;;;5073189;28;20027;-75
2021/06/12 06:20:58;;;;;;;14.25;11.82;;;461.50;2380.80;;;;;;5070270;28;20107;-74
2021/06/12 06:23:24;;;;;;;16.58;13.00;;;461.60;2380.80;;;;;;5072450;28;20040;-75
2021/06/12 06:25:50;;;;;;;14.77;11.88;;;461.70;2380.80;;;;;;5073256;28;20384;-77
2021/06/12 06:28:16;;;;;;;15.27;12.80;;;486.50;2380.80;;;;;;5070217;28;20052;-78
2021/06/12 06:30:42;;;;;;;20.38;11.40;;;486.60;2380.80;;;;;;5072020;28;20392;-76
2021/06/12 06:33:08;;;;;;;19.55;13.30;;;486.80;2380.80;;;;;;5073171;28;20020;-76
2021/06/12 06:35:33;;;;;;;19.85;14.02;;;487.00;2380.80;;;;;;5073216;28;20032;-77
2021/06/12 06:37:59;;;;;;;19.63;12.77;;;487.10;2380.80;;;;;;5062019;28;20017;-77
2021/06/12 06:40:26;;;;;;;18.58;14.25;;;487.20;2380.80;;;;;;5065059;28;20036;-77
2021/06/12 06:42:51;;;;;;;27.38;14.95;;;512.00;2380.80;;;;;;5066941;28;20082;-76
2021/06/12 06:45:18;;;;;;;17.13;12.18;;;512.20;2380.80;;;;;;5053325;28;20104;-79
2021/06/12 06:47:43;;;;;;;15.88;13.35;;;512.40;2380.80;;;;;;5068254;28;20024;-76
2021/06/12 06:50:10;;;;;;;21.95;13.45;;;512.60;2380.80;;;;;;5065194;28;20025;-77
2021/06/12 06:52:36;;;;;;;14.50;10.05;;;512.70;2380.80;;;;;;5063836;28;20024;-79
2021/06/12 06:55:03;;;;;;;13.10;10.02;;;512.90;2304.00;;;;;;5071958;28;20044;-75
2021/06/12 06:57:28;;;;;;;17.33;12.05;;;512.90;2252.80;;;;;;5072428;28;20090;-78
2021/06/12 06:59:54;;;;;;;17.52;11.82;;;537.70;2304.00;;;;;;5072667;28;20044;-76
2021/06/12 07:02:20;;;;;;;21.85;14.35;;;537.80;2329.60;;;;;;5055171;28;20075;-75
2021/06/12 07:04:46;;;;;;;19.27;13.15;;;537.80;2304.00;;;;;;5054300;28;20031;-78
2021/06/12 07:07:12;;;;;;;25.98;17.23;;;537.70;2355.20;;;;;;5073315;28;20060;-77
2021/06/12 07:09:38;;;;;;;19.20;12.27;;;537.70;2380.80;;;;;;5073154;28;20127;-77
2021/06/12 07:12:04;;;;;;;20.80;13.02;;;537.70;2380.80;;;;;;5071766;28;20039;-76
2021/06/12 07:14:31;;;;;;;21.45;11.60;;;537.80;2406.40;;;;;;5074233;28;20044;-77
2021/06/12 07:16:56;;;;;;;16.67;13.45;;;537.90;2278.40;;;;;;5076408;28;20033;-76
2021/06/12 07:19:23;;;;;;;17.35;11.20;;;538.00;2329.60;;;;;;5076456;28;20087;-77
2021/06/12 07:21:49;;;;;;;17.38;12.18;;;538.20;2304.00;;;;;;5076317;28;20020;-78
2021/06/12 07:24:15;;;;;;;15.27;9.80;;;538.30;2304.00;;;;;;5069657;28;20395;-76
2021/06/12 07:26:42;;;;;;;15.23;10.48;;;538.40;2201.60;;;;;;5068195;28;20036;-77
2021/06/12 07:29:12;;;;;;;13.35;9.18;;;538.50;2201.60;;;;;;5073412;28;20498;-75
2021/06/12 07:31:39;;;;;;;15.27;9.52;;;538.50;2150.40;;;;;;5072291;28;20020;-76
2021/06/12 07:34:06;;;;;;;10.27;8.82;;;563.20;2201.60;;;;;;5061562;28;20029;-77
2021/06/12 07:36:32;;;;;;;12.45;8.95;;;563.40;2201.60;;;;;;5063861;28;20089;-77
2021/06/12 07:38:58;;;;;;;13.52;7.13;;;563.50;2150.40;;;;;;5075856;28;20016;-77
2021/06/12 07:41:24;;;;;;;11.55;7.18;;;563.70;2073.60;;;;;;5074811;28;20078;-77
2021/06/12 07:43:50;;;;;;;8.95;7.88;;;563.80;2022.40;;;;;;5074690;28;20082;-77
2021/06/12 07:46:16;;;;;;;9.38;7.70;;;563.90;2022.40;;;;;;5075947;28;20028;-76
2021/06/12 07:48:42;;;;;;;7.13;6.20;;;564.10;1971.20;;;;;;5075714;28;20070;-77
2021/06/12 07:51:08;;;;;;;11.75;7.03;;;564.10;1920.00;;;;;;5083329;28;20033;-80
2021/06/12 07:53:34;;;;;;;8.50;7.00;;;588.90;2022.40;;;;;;5085106;28;20056;-76
2021/06/12 07:56:00;;;;;;;6.60;5.03;;;589.00;1920.00;;;;;;5079605;28;20036;-78
2021/06/12 07:58:26;;;;;;;6.40;5.40;;;589.10;1843.20;;;;;;5073794;28;20051;-77
2021/06/12 08:00:52;;;;;;;9.43;5.90;;;589.20;1843.20;;;;;;5075821;28;20024;-79
2021/06/12 08:03:18;;;;;;;7.30;6.35;;;589.20;1843.20;;;;;;5075405;28;20116;-77
2021/06/12 08:05:43;;;;;;;7.53;5.50;;;589.20;1792.00;;;;;;5074218;28;20096;-77
2021/06/12 08:08:10;;;;;;;9.40;8.20;;;589.20;1766.40;;;;;;5075475;28;20044;-78
2021/06/12 08:10:35;;;;;;;7.60;6.75;;;589.20;1792.00;;;;;;5090935;28;20029;-77
2021/06/12 08:13:01;;;;;;;7.30;6.05;;;589.30;1817.60;;;;;;5075417;28;20031;-77
2021/06/12 08:15:27;;;;;;;6.30;5.65;;;589.30;1792.00;;;;;;5064932;28;20418;-78
2021/06/12 08:17:53;;;;;;;7.78;5.90;;;589.50;1843.20;;;;;;5074426;28;20052;-77
2021/06/12 08:20:19;;;;;;;6.75;5.63;;;614.40;1868.80;;;;;;5070149;28;20572;-78
2021/06/12 08:22:45;;;;;;;7.07;6.38;;;589.50;1766.40;;;;;;5056375;28;20087;-78
2021/06/12 08:25:12;;;;;;;6.53;5.28;;;614.40;1740.80;;;;;;5054738;28;20096;-77
2021/06/12 08:27:38;;;;;;;6.65;4.80;;;614.60;1740.80;;;;;;5053737;28;20025;-79
2021/06/12 08:30:05;;;;;;;6.07;4.72;;;614.70;1715.20;;;;;;5055207;28;20052;-76
2021/06/12 08:32:31;;;;;;;8.05;6.35;;;614.80;1740.80;;;;;;5054952;28;20036;-78
2021/06/12 08:34:57;;;;;;;6.85;5.47;;;614.80;1715.20;;;;;;5055347;28;20465;-78
2021/06/12 08:37:23;;;;;;;6.05;5.05;;;614.80;1715.20;;;;;;5071427;28;20040;-79
2021/06/12 08:39:50;;;;;;;7.75;6.97;;;614.80;1715.20;;;;;;5073973;28;20039;-77
2021/06/12 08:42:16;;;;;;;5.43;4.93;;;614.80;1792.00;;;;;;5065528;28;20507;-76
2021/06/12 08:44:44;;;;;;;7.85;5.65;;;614.80;1689.60;;;;;;5054723;28;20025;-77
2021/06/12 08:47:11;;;;;;;8.70;5.20;;;614.80;1715.20;;;;;;5083024;28;20025;-78
2021/06/12 08:49:40;;;;;;;7.82;5.85;;;614.80;1689.60;;;;;;5065196;28;20111;-77
2021/06/12 08:52:07;;;;;;;8.25;5.88;;;614.90;1715.20;;;;;;5073762;28;20040;-78
2021/06/12 08:54:33;;;;;;;6.47;5.78;;;615.00;1689.60;;;;;;5074400;28;20052;-78
2021/06/12 08:56:59;;;;;;;11.77;6.00;;;615.10;1715.20;;;;;;5074454;28;20021;-77
2021/06/12 08:59:27;;;;;;;5.75;4.85;;;615.30;1715.20;;;;;;5074573;28;20027;-76
2021/06/12 09:01:53;;;;;;;9.95;5.70;;;640.10;1689.60;;;;;;5073600;28;20020;-76
2021/06/12 09:04:53;;;;;;;8.48;6.70;;;640.20;1689.60;;;;;;5073006;28;20026;-77
2021/06/12 09:07:20;;;;;;;7.82;5.65;;;640.40;1715.20;;;;;;5066578;28;20041;-77
2021/06/12 09:09:47;;;;;;;6.60;5.53;;;640.50;1740.80;;;;;;5073125;28;20028;-77
2021/06/12 09:12:13;;;;;;;6.70;4.75;;;640.70;1638.40;;;;;;5073429;28;20070;-76
2021/06/12 09:14:39;;;;;;;8.48;5.63;;;640.70;1612.80;;;;;;5074291;28;20064;-77
2021/06/12 09:17:05;;;;;;;7.18;5.82;;;640.90;1664.00;;;;;;5074144;28;20353;-76
2021/06/12 09:19:39;;;;;;;5.97;5.38;;;665.60;1689.60;;;;;;5073004;28;20021;-76
2021/06/12 09:22:08;;;;;;;7.10;5.53;;;665.60;1561.60;;;;;;5057843;28;20493;-76
2021/06/12 09:24:45;;;;;;;7.38;6.43;;;665.60;1612.80;;;;;;5055904;28;20041;-78
2021/06/12 09:27:17;;;;;;;9.75;8.75;;;665.60;1587.20;;;;;;5064397;28;20036;-78
2021/06/12 09:29:45;;;;;;;6.80;4.80;;;640.90;1587.20;;;;;;5069742;28;20039;-77
2021/06/12 09:32:14;;;;;;;5.93;5.32;;;640.90;1536.00;;;;;;5088310;28;20074;-77
2021/06/12 09:34:41;;;;;;;5.68;5.10;;;665.60;1587.20;;;;;;5071433;28;20053;-78
2021/06/12 09:37:19;;;;;;;6.15;5.55;;;665.70;1561.60;;;;;;5071295;28;20031;-77
2021/06/12 09:40:07;;;;;;;6.18;5.57;;;665.80;1612.80;;;;;;5073619;28;20031;-77
2021/06/12 09:42:41;;;;;;;5.85;5.25;;;666.10;1536.00;;;;;;5073751;28;20043;-77
2021/06/12 09:45:10;;;;;;;6.60;5.35;;;666.40;1459.20;;;;;;5071782;28;20105;-77
2021/06/12 09:47:36;;;;;;;5.18;4.68;;;666.40;1459.20;;;;;;5068575;28;20025;-77
2021/06/12 09:50:05;;;;;;;8.85;6.57;;;666.50;1433.60;;;;;;5075434;28;20080;-78
2021/06/12 09:52:57;;;;;;;6.07;5.47;;;666.40;1484.80;;;;;;5074022;28;20029;-75
2021/06/12 09:55:30;;;;;;;6.65;4.75;;;691.40;1510.40;;;;;;5070242;28;20049;-75
2021/06/12 09:57:59;;;;;;;9.50;6.20;;;691.70;1459.20;;;;;;5065576;28;20226;-77
2021/06/12 10:00:46;;;;;;;6.95;5.38;;;691.90;1408.00;;;;;;5064815;28;20032;-75
2021/06/12 10:03:17;;;;;;;6.28;4.93;;;691.90;1484.80;;;;;;5063495;28;20029;-77
2021/06/12 10:05:44;;;;;;;6.25;5.75;;;716.80;1510.40;;;;;;5060982;28;20037;-77
2021/06/12 10:08:13;;;;;;;8.63;5.47;;;716.90;1433.60;;;;;;5056755;28;20024;-75
2021/06/12 10:10:39;;;;;;;5.78;4.97;;;716.90;1356.80;;;;;;5065210;28;20035;-76
2021/06/12 10:13:05;;;;;;;6.50;4.75;;;716.90;1408.00;;;;;;5056629;28;20075;-76
2021/06/12 10:15:31;;;;;;;11.60;5.85;;;716.80;1408.00;;;;;;5073226;28;20396;-76
2021/06/12 10:17:58;;;;;;;10.40;6.82;;;716.90;1433.60;;;;;;5073533;28;20021;-77
2021/06/12 10:20:25;;;;;;;17.23;5.97;;;716.90;1459.20;;;;;;5073294;28;20036;-75
2021/06/12 10:22:53;;;;;;;8.45;5.25;;;717.00;1433.60;;;;;;5067607;28;20112;-76
2021/06/12 10:25:22;;;;;;;6.03;5.25;;;716.90;1433.60;;;;;;5062636;28;20028;-77
2021/06/12 10:27:48;;;;;;;7.38;5.45;;;716.90;1433.60;;;;;;5062571;28;20082;-77
2021/06/12 10:30:18;;;;;;;7.38;5.28;;;691.70;1484.80;;;;;;5057250;28;20465;-77
2021/06/12 10:32:52;;;;;;;5.03;4.22;;;665.80;1459.20;;;;;;5053003;28;20029;-78
2021/06/12 10:35:25;;;;;;;4.30;3.90;;;640.30;1382.40;;;;;;5064240;28;20392;-76
2021/06/12 10:38:29;;;;;;;6.97;4.45;;;615.30;1433.60;;;;;;5073374;28;20056;-75
2021/06/12 10:40:57;;;;;;;15.13;10.82;;;615.00;1484.80;;;;;;5061345;28;20017;-76
2021/06/12 10:46:04;;;;;;;21.38;10.65;;;614.70;1536.00;;;;;;5072846;28;20104;-77
2021/06/12 10:48:50;;;;;;;10.35;7.25;;;614.70;1561.60;;;;;;5074477;28;20084;-77
2021/06/12 10:51:36;;;;;;;16.70;7.72;;;614.70;1612.80;;;;;;5075507;28;20082;-77
2021/06/12 10:54:11;;;;;;;6.90;6.00;;;614.90;1664.00;;;;;;5075960;28;20048;-77
2021/06/12 10:56:42;;;;;;;5.32;4.75;;;615.10;1638.40;;;;;;5076359;28;20405;-76
2021/06/12 10:59:09;;;;;;;5.68;4.68;;;615.20;1510.40;;;;;;5075823;28;20472;-76
2021/06/12 11:01:36;;;;;;;7.07;5.03;;;615.30;1484.80;;;;;;5075491;28;20038;-77
2021/06/12 11:04:09;;;;;;;8.50;5.07;;;640.20;1536.00;;;;;;5075852;28;20071;-76
2021/06/12 11:09:14;;;;;;;6.22;5.10;;;640.90;1510.40;;;;;;5076802;28;20085;-76
2021/06/12 11:11:41;;;;;;;6.63;5.80;;;665.70;1510.40;;;;;;5075474;28;20381;-77
2021/06/12 11:14:22;;;;;;;10.02;6.68;;;665.70;1536.00;;;;;;5076605;28;20024;-77
2021/06/12 11:19:32;;;;;;;8.60;5.15;;;666.50;1484.80;;;;;;5075328;28;20506;-77
2021/06/12 11:22:36;;;;;;;7.32;4.80;;;691.30;1433.60;;;;;;5074673;28;20033;-77
2021/06/12 11:25:08;;;;;;;8.60;5.68;;;691.30;1484.80;;;;;;5056160;28;20033;-77
2021/06/12 11:27:35;;;;;;;6.15;5.30;;;691.50;1459.20;;;;;;5056395;28;20381;-78
2021/06/12 11:30:21;;;;;;;6.72;4.78;;;691.70;1459.20;;;;;;5056392;28;20028;-77
2021/06/12 11:32:55;;;;;;;8.27;5.00;;;691.90;1484.80;;;;;;5056468;28;20530;-78
2021/06/12 11:35:47;;;;;;;6.05;4.85;;;691.80;1459.20;;;;;;5056271;28;20028;-77
2021/06/12 11:38:28;;;;;;;4.38;3.97;;;691.80;1484.80;;;;;;5056291;28;20507;-77
2021/06/12 11:41:03;;;;;;;7.88;5.20;;;691.80;1433.60;;;;;;5056212;28;20040;-77
2021/06/12 11:43:38;;;;;;;6.32;4.50;;;691.70;1408.00;;;;;;5056237;28;20028;-76
2021/06/12 11:46:11;;;;;;;7.85;5.25;;;691.80;1408.00;;;;;;5056202;28;20021;-77
2021/06/12 11:48:46;;;;;;;5.88;4.40;;;691.80;1382.40;;;;;;5055827;28;20066;-76
2021/06/12 11:51:25;;;;;;;5.30;4.22;;;691.90;1408.00;;;;;;5055842;28;20047;-77
2021/06/12 11:54:17;;;;;;;5.90;4.45;;;691.90;1408.00;;;;;;5055615;28;20052;-77
2021/06/12 11:56:45;;;;;;;5.30;4.80;;;691.90;1382.40;;;;;;5055773;28;20040;-76
2021/06/12 11:59:16;;;;;;;5.55;4.45;;;691.90;1382.40;;;;;;5054206;28;20445;-77
2021/06/12 12:01:47;;;;;;;6.47;4.20;;;691.90;1382.40;;;;;;5055517;28;20017;-77
2021/06/12 12:04:21;;;;;;;5.30;4.07;;;691.80;1382.40;;;;;;5056629;28;20110;-75
2021/06/12 12:06:52;;;;;;;5.97;4.05;;;691.80;1356.80;;;;;;5055753;28;20033;-77
2021/06/12 12:09:30;;;;;;;5.22;4.07;;;691.90;1408.00;;;;;;5056951;28;20025;-78
2021/06/12 12:11:58;;;;;;;8.10;5.43;;;716.80;1433.60;;;;;;5055181;28;20051;-76
2021/06/12 12:14:55;;;;;;;7.03;5.00;;;692.10;1331.20;;;;;;5056948;28;20028;-76
2021/06/12 12:17:28;;;;;;;6.68;4.20;;;716.90;1408.00;;;;;;5056804;28;20041;-75
2021/06/12 12:19:59;;;;;;;6.35;5.38;;;717.00;1356.80;;;;;;5057783;28;20376;-77
2021/06/12 12:22:49;;;;;;;5.35;3.85;;;717.30;1356.80;;;;;;5056011;28;20017;-75